»·PEaware :: UAL573 KLAS-KDEN

UAL573 :: KLAS-KDEN

FLIGHT INFORMATION

Flight Status: Arrived
Operator:
United Airlines
More flights by this operator :: More flights under this callsign
Pilot: Teofilo H. (11827)
Aircraft: BOEING 737-800
(B738)
More flights by this aircraft type
Origin: KLAS McCarran Intl
United States
Destination: KDEN Denver Intl
United States
More flights between these airports :: More routes between these airports
Route: LAS5 DVC WOLLF TELLR2
File this flight plan on PilotEdge
Remarks: PBN / A1B1C1D1S1S2 DOF / 180613 REG / N806SB EET / KZDV0026 OPR / UAL PER / C RMK / TCAS SIMBRIEF
Altitude:
(Current/Filed)
37,000ft
Speed:
(Current/Filed)
453kts
Departed: 12-Jun-18 07:06 PM
Arrived: 12-Jun-18 08:32 PM
Distance/Time
Traveled:
545nm/1:25
Distance/Time
To Go:
Arrived

Flight Plot

Page will automatically refresh every two minutes.

Flight plan parsing failed; only flown route is shown


Map Options




Map Legend


Flown Route
Filed Route
Departure Airport
Arrival Airport
Navaid (VOR, NDB)
Fix

Horizontal Profiles

Position Reports

Time Latitude Longitude Heading Altitude Ground
Speed
12-Jun-18 18:33 36.082953 -115.138745 226 2064ft 0kts
12-Jun-18 18:34 36.082953 -115.138745 226 2064ft 0kts
12-Jun-18 18:35 36.082953 -115.138745 226 2064ft 0kts
12-Jun-18 18:36 36.082953 -115.138745 226 2064ft 0kts
12-Jun-18 18:37 36.082953 -115.138745 226 2064ft 0kts
12-Jun-18 18:38 36.082953 -115.138745 226 2064ft 0kts
12-Jun-18 18:39 36.082953 -115.138745 226 2064ft 0kts
12-Jun-18 18:40 36.082953 -115.138745 226 2064ft 0kts
12-Jun-18 18:41 36.082953 -115.138745 226 2064ft 0kts
12-Jun-18 18:42 36.082953 -115.138745 226 2064ft 0kts
12-Jun-18 18:43 36.082953 -115.138745 226 2064ft 0kts
12-Jun-18 18:44 36.082953 -115.138745 226 2064ft 0kts
12-Jun-18 18:45 36.082953 -115.138745 226 2064ft 0kts
12-Jun-18 18:46 36.082953 -115.138744 226 2064ft 0kts
12-Jun-18 18:47 36.083139 -115.138586 215 2063ft 2kts
12-Jun-18 18:48 36.083610 -115.138183 214 2061ft 2kts
12-Jun-18 18:49 36.084108 -115.137760 214 2059ft 2kts
12-Jun-18 18:50 36.084199 -115.137548 268 2058ft 0kts
12-Jun-18 18:51 36.084199 -115.137549 268 2058ft 0kts
12-Jun-18 18:52 36.084199 -115.137549 268 2058ft 0kts
12-Jun-18 18:53 36.084199 -115.137544 268 2058ft 0kts
12-Jun-18 18:54 36.084199 -115.137544 268 2058ft 0kts
12-Jun-18 18:55 36.084199 -115.137544 268 2058ft 0kts
12-Jun-18 18:56 36.084199 -115.137576 268 2058ft 1kts
12-Jun-18 18:57 36.083613 -115.141249 227 2070ft 18kts
12-Jun-18 18:58 36.078249 -115.143101 266 2087ft 18kts
12-Jun-18 18:59 36.078640 -115.149161 275 2107ft 19kts
12-Jun-18 19:00 36.081355 -115.154859 333 2121ft 28kts
12-Jun-18 19:01 36.087746 -115.157580 25 2117ft 27kts
12-Jun-18 19:02 36.095656 -115.153039 24 2082ft 26kts
12-Jun-18 19:03 36.097386 -115.152125 15 2077ft 0kts
12-Jun-18 19:04 36.097405 -115.152118 15 2077ft 0kts
12-Jun-18 19:05 36.097255 -115.154304 204 2084ft 38kts
12-Jun-18 19:06 36.064808 -115.173715 205 2848ft 173kts
12-Jun-18 19:07 36.024293 -115.217695 222 4366ft 224kts
12-Jun-18 19:08 35.969405 -115.269706 175 5881ft 275kts
12-Jun-18 19:09 35.943416 -115.196522 75 8448ft 288kts
12-Jun-18 19:10 35.968893 -115.100094 73 10650ft 311kts
12-Jun-18 19:11 35.997330 -114.993241 72 12550ft 339kts
12-Jun-18 19:12 36.027125 -114.880996 72 14769ft 351kts
12-Jun-18 19:13 36.057695 -114.765342 72 16895ft 362kts
12-Jun-18 19:14 36.089088 -114.646040 72 18905ft 371kts
12-Jun-18 19:15 36.121225 -114.523352 72 20646ft 381kts
12-Jun-18 19:16 36.154155 -114.397062 72 22278ft 390kts
12-Jun-18 19:17 36.187286 -114.269407 73 23763ft 399kts
12-Jun-18 19:18 36.208138 -114.134318 83 25164ft 405kts
12-Jun-18 19:19 36.224377 -113.995383 83 26446ft 414kts
12-Jun-18 19:20 36.240959 -113.853088 83 27643ft 422kts
12-Jun-18 19:21 36.256901 -113.715237 83 28703ft 429kts
12-Jun-18 19:22 36.270833 -113.593901 83 29729ft 430kts
12-Jun-18 19:23 36.287434 -113.447930 83 30962ft 428kts
12-Jun-18 19:24 36.303709 -113.303437 84 32041ft 428kts
12-Jun-18 19:25 36.334502 -113.161914 67 32990ft 430kts
12-Jun-18 19:26 36.382751 -113.026587 67 33870ft 430kts
12-Jun-18 19:27 36.431591 -112.889130 66 34286ft 440kts
12-Jun-18 19:28 36.480688 -112.750327 66 35028ft 439kts
12-Jun-18 19:29 36.529445 -112.611810 66 35718ft 439kts
12-Jun-18 19:30 36.578010 -112.473183 66 36335ft 438kts
12-Jun-18 19:31 36.626168 -112.335079 66 36862ft 439kts
12-Jun-18 19:32 36.675099 -112.194361 66 36980ft 453kts
12-Jun-18 19:33 36.726054 -112.047097 66 36878ft 474kts
12-Jun-18 19:34 36.778715 -111.894001 66 36871ft 485kts
12-Jun-18 19:35 36.831310 -111.740306 66 36873ft 484kts
12-Jun-18 19:36 36.883926 -111.585725 66 36874ft 484kts
12-Jun-18 19:37 36.936173 -111.431675 65 36875ft 484kts
12-Jun-18 19:38 36.991125 -111.279792 65 36869ft 483kts
12-Jun-18 19:39 37.046356 -111.127095 65 36943ft 483kts
12-Jun-18 19:40 37.101144 -110.974724 65 36940ft 483kts
12-Jun-18 19:41 37.155725 -110.822065 65 36940ft 484kts
12-Jun-18 19:42 37.210397 -110.668299 65 36941ft 484kts
12-Jun-18 19:43 37.264857 -110.514254 64 36941ft 484kts
12-Jun-18 19:44 37.319757 -110.358032 64 37006ft 489kts
12-Jun-18 19:45 37.374209 -110.202568 65 37150ft 490kts
12-Jun-18 19:46 37.428651 -110.046263 65 37158ft 491kts
12-Jun-18 19:47 37.482603 -109.890469 65 37162ft 486kts
12-Jun-18 19:48 37.536193 -109.734822 65 37158ft 485kts
12-Jun-18 19:49 37.589596 -109.578875 65 37159ft 486kts
12-Jun-18 19:50 37.642848 -109.422494 65 37161ft 486kts
12-Jun-18 19:51 37.694155 -109.271127 66 37155ft 486kts
12-Jun-18 19:52 37.746972 -109.114652 66 37155ft 487kts
12-Jun-18 19:53 37.799780 -108.957307 66 37108ft 488kts
12-Jun-18 19:54 37.866471 -108.809856 56 37102ft 490kts
12-Jun-18 19:55 37.937554 -108.664487 56 37109ft 487kts
12-Jun-18 19:56 38.007947 -108.518728 56 37108ft 486kts
12-Jun-18 19:57 38.078117 -108.372445 56 37107ft 486kts
12-Jun-18 19:58 38.145511 -108.232057 57 37099ft 486kts
12-Jun-18 19:59 38.215428 -108.086580 57 37292ft 489kts
12-Jun-18 20:00 38.286040 -107.939895 56 37074ft 487kts
12-Jun-18 20:01 38.356705 -107.793407 56 37076ft 487kts
12-Jun-18 20:02 38.427738 -107.646446 56 37076ft 487kts
12-Jun-18 20:03 38.496421 -107.498147 58 37079ft 488kts
12-Jun-18 20:04 38.563236 -107.348357 59 37104ft 487kts
12-Jun-18 20:05 38.629834 -107.198826 58 37259ft 487kts
12-Jun-18 20:06 38.696783 -107.047887 59 37263ft 489kts
12-Jun-18 20:07 38.764315 -106.894932 58 37266ft 499kts
12-Jun-18 20:08 38.831917 -106.741078 58 37241ft 497kts
12-Jun-18 20:09 38.900634 -106.588027 57 37245ft 496kts
12-Jun-18 20:10 38.970819 -106.436096 57 37432ft 496kts
12-Jun-18 20:11 39.038874 -106.287628 57 35497ft 494kts
12-Jun-18 20:12 39.107864 -106.135330 57 31789ft 506kts
12-Jun-18 20:13 39.176610 -105.980167 58 28752ft 494kts
12-Jun-18 20:14 39.242481 -105.830479 57 26119ft 474kts
12-Jun-18 20:15 39.306018 -105.685333 57 23364ft 456kts
12-Jun-18 20:16 39.364814 -105.551098 60 20860ft 406kts
12-Jun-18 20:17 39.397283 -105.423804 86 18945ft 353kts
12-Jun-18 20:18 39.402597 -105.304006 89 17292ft 326kts
12-Jun-18 20:19 39.407875 -105.189040 90 15747ft 331kts
12-Jun-18 20:20 39.413064 -105.071405 88 14424ft 316kts
12-Jun-18 20:21 39.417796 -104.964002 88 13220ft 285kts
12-Jun-18 20:22 39.424995 -104.866252 84 12143ft 263kts
12-Jun-18 20:23 39.437681 -104.776710 58 11095ft 255kts
12-Jun-18 20:24 39.491547 -104.727084 17 10259ft 240kts
12-Jun-18 20:25 39.553418 -104.703613 17 8938ft 229kts
12-Jun-18 20:26 39.612310 -104.681294 17 7873ft 207kts
12-Jun-18 20:27 39.666407 -104.663030 9 8164ft 206kts
12-Jun-18 20:28 39.721367 -104.661499 0 7696ft 188kts
12-Jun-18 20:29 39.768128 -104.661573 0 6553ft 155kts
12-Jun-18 20:30 39.811124 -104.660972 5 5810ft 153kts
12-Jun-18 20:31 39.843579 -104.660308 2 5439ft 61kts
12-Jun-18 20:32 39.849234 -104.661788 330 5439ft 0kts
12-Jun-18 20:33 39.851422 -104.662445 2 5439ft 17kts
12-Jun-18 20:34 39.856254 -104.662380 354 5439ft 17kts
12-Jun-18 20:35 39.856590 -104.667117 271 5439ft 13kts
12-Jun-18 20:36 39.856851 -104.671827 316 5439ft 12kts
12-Jun-18 20:37 39.858053 -104.672043 0 5439ft 0kts
12-Jun-18 20:38 39.858053 -104.672043 0 5439ft 0kts
12-Jun-18 20:39 39.858053 -104.672043 0 5439ft 0kts
12-Jun-18 20:40 39.858053 -104.672043 0 5439ft 0kts

Navigation Log

Ident Type
Flight plan parsing failed, navigation log unavailable